createdAt,value
2023-04-18T00:01:44.363Z,7.92
2023-04-18T00:04:14.157Z,7.88
2023-04-18T00:06:40.909Z,7.86
2023-04-18T00:09:08.367Z,7.82
2023-04-18T00:11:35.132Z,7.77
2023-04-18T00:14:03.279Z,7.73
2023-04-18T00:16:33.095Z,7.71
2023-04-18T00:19:03.490Z,7.67
2023-04-18T00:21:30.068Z,7.62
2023-04-18T00:23:56.597Z,7.57
2023-04-18T00:26:23.170Z,7.54
2023-04-18T00:28:51.067Z,7.52
2023-04-18T00:31:17.654Z,7.46
2023-04-18T00:33:45.423Z,7.43
2023-04-18T00:36:15.044Z,7.38
2023-04-18T00:38:42.733Z,7.35
2023-04-18T00:41:10.822Z,7.33
2023-04-18T00:43:37.585Z,7.29
2023-04-18T00:46:05.447Z,7.24
2023-04-18T00:48:32.020Z,7.20
2023-04-18T00:51:00.248Z,7.19
2023-04-18T00:53:27.887Z,7.17
2023-04-18T00:55:54.929Z,7.12
2023-04-18T00:58:21.594Z,7.08
2023-04-18T01:00:50.789Z,7.03
2023-04-18T01:03:19.295Z,7.00
2023-04-18T01:05:46.486Z,6.96
2023-04-18T01:08:13.298Z,6.92
2023-04-18T01:10:42.040Z,6.90
2023-04-18T01:13:16.509Z,6.87
2023-04-18T01:15:44.542Z,6.84
2023-04-18T01:18:12.327Z,6.80
2023-04-18T01:20:41.639Z,6.77
2023-04-18T01:23:10.325Z,6.71
2023-04-18T01:25:37.326Z,6.70
2023-04-18T01:28:04.728Z,6.64
2023-04-18T01:30:32.362Z,6.60
2023-04-18T01:33:01.485Z,6.57
2023-04-18T01:35:28.493Z,6.54
2023-04-18T01:37:57.336Z,6.53
2023-04-18T01:40:24.703Z,6.49
2023-04-18T01:42:51.296Z,6.44
2023-04-18T01:45:20.163Z,6.43
2023-04-18T01:47:47.203Z,6.41
2023-04-18T01:50:13.970Z,6.34
2023-04-18T01:52:42.574Z,6.33
2023-04-18T01:55:09.617Z,6.30
2023-04-18T01:57:36.829Z,6.27
2023-04-18T02:00:08.045Z,6.25
2023-04-18T02:02:43.503Z,6.22
2023-04-18T02:05:12.889Z,6.22
2023-04-18T02:07:40.824Z,6.21
2023-04-18T02:10:07.876Z,6.20
2023-04-18T02:12:35.891Z,6.19
2023-04-18T02:15:02.700Z,6.16
2023-04-18T02:17:32.629Z,6.14
2023-04-18T02:19:59.103Z,6.09
2023-04-18T02:22:25.641Z,6.06
2023-04-18T02:24:52.805Z,6.00
2023-04-18T02:27:20.304Z,5.98
2023-04-18T02:29:46.855Z,5.96
2023-04-18T02:32:13.593Z,5.95
2023-04-18T02:34:43.500Z,5.93
2023-04-18T02:37:10.029Z,5.92
2023-04-18T02:39:37.885Z,5.90
2023-04-18T02:42:05.636Z,5.87
2023-04-18T02:44:32.106Z,5.84
2023-04-18T02:46:59.209Z,5.81
2023-04-18T02:49:25.892Z,5.78
2023-04-18T02:51:55.702Z,5.73
2023-04-18T02:54:22.282Z,5.69
2023-04-18T02:57:04.073Z,5.64
2023-04-18T02:59:52.787Z,5.61
2023-04-18T03:02:39.404Z,5.61
2023-04-18T03:05:21.416Z,5.56
2023-04-18T03:07:48.460Z,5.52
2023-04-18T03:10:16.333Z,5.52
2023-04-18T03:12:43.021Z,5.49
2023-04-18T03:15:11.621Z,5.46
2023-04-18T03:17:39.162Z,5.43
2023-04-18T03:20:06.394Z,5.41
2023-04-18T03:22:32.910Z,5.39
2023-04-18T03:25:01.070Z,5.37
2023-04-18T03:27:40.435Z,5.33
2023-04-18T03:30:07.875Z,5.29
2023-04-18T03:32:36.425Z,5.26
2023-04-18T03:35:03.326Z,5.23
2023-04-18T03:37:30.213Z,5.23
2023-04-18T03:39:57.241Z,5.20
2023-04-18T03:42:26.602Z,5.17
2023-04-18T03:44:55.203Z,5.15
2023-04-18T03:47:21.946Z,5.13
2023-04-18T03:49:54.456Z,5.07
2023-04-18T03:52:22.578Z,5.02
2023-04-18T03:54:49.092Z,4.99
2023-04-18T03:57:17.689Z,4.98
2023-04-18T03:59:46.053Z,4.94
2023-04-18T04:02:13.927Z,4.95
2023-04-18T04:04:43.099Z,4.95
2023-04-18T04:07:10.758Z,4.97
2023-04-18T04:09:37.266Z,5.01
2023-04-18T04:12:03.972Z,5.04
2023-04-18T04:14:30.585Z,5.08
2023-04-18T04:16:57.196Z,5.12
2023-04-18T04:19:23.778Z,5.12
2023-04-18T04:22:12.032Z,5.16
2023-04-18T04:24:46.681Z,5.18
2023-04-18T04:27:15.659Z,5.20
2023-04-18T04:29:43.710Z,5.22
2023-04-18T04:32:17.795Z,5.24
2023-04-18T04:34:46.281Z,5.28
2023-04-18T04:37:14.197Z,5.27
2023-04-18T04:39:53.270Z,5.29
2023-04-18T04:42:32.993Z,5.29
2023-04-18T04:45:08.222Z,5.33
2023-04-18T04:47:36.306Z,5.33
2023-04-18T04:50:05.243Z,5.35
2023-04-18T04:52:32.640Z,5.35
2023-04-18T04:54:59.584Z,5.36
2023-04-18T04:57:26.466Z,5.37
2023-04-18T04:59:53.310Z,5.39
2023-04-18T05:02:23.163Z,5.39
2023-04-18T05:04:50.070Z,5.37
2023-04-18T05:07:16.609Z,5.40
2023-04-18T05:09:43.397Z,5.43
2023-04-18T05:12:09.884Z,5.44
2023-04-18T05:14:36.386Z,5.44
2023-04-18T05:17:04.046Z,5.44
2023-04-18T05:19:31.989Z,5.46
2023-04-18T05:21:58.503Z,5.48
2023-04-18T05:24:27.601Z,5.49
2023-04-18T05:26:54.340Z,5.50
2023-04-18T05:29:21.044Z,5.54
2023-04-18T05:31:47.841Z,5.55
2023-04-18T05:34:17.235Z,5.56
2023-04-18T05:36:45.851Z,5.59
2023-04-18T05:39:12.649Z,5.58
2023-04-18T05:41:39.171Z,5.61
2023-04-18T05:44:07.155Z,5.61
2023-04-18T05:46:33.835Z,5.65
2023-04-18T05:49:00.649Z,5.70
2023-04-18T05:51:28.411Z,5.72
2023-04-18T05:53:55.043Z,5.75
2023-04-18T05:56:21.535Z,5.79
2023-04-18T05:58:51.203Z,5.80
2023-04-18T06:01:21.355Z,5.83
2023-04-18T06:03:48.159Z,5.85
2023-04-18T06:06:14.996Z,5.88
2023-04-18T06:08:41.722Z,5.93
2023-04-18T06:11:09.105Z,5.94
2023-04-18T06:13:38.853Z,5.97
2023-04-18T06:16:07.966Z,6.01
2023-04-18T06:18:36.617Z,6.06
2023-04-18T06:21:03.122Z,6.12
2023-04-18T06:23:29.656Z,6.18
2023-04-18T06:25:56.921Z,6.22
2023-04-18T06:28:23.756Z,6.31
2023-04-18T06:30:50.916Z,6.35
2023-04-18T06:33:17.450Z,6.46
2023-04-18T06:35:44.206Z,6.55
2023-04-18T06:38:14.676Z,6.65
2023-04-18T06:40:41.227Z,6.73
2023-04-18T06:43:07.682Z,6.82
2023-04-18T06:45:34.936Z,6.90
2023-04-18T06:48:03.773Z,6.98
2023-04-18T06:50:30.638Z,7.02
2023-04-18T06:52:57.629Z,7.06
2023-04-18T06:55:24.136Z,7.08
2023-04-18T06:57:52.071Z,7.08
2023-04-18T07:03:39.654Z,7.09
2023-04-18T07:06:10.468Z,7.18
2023-04-18T07:08:38.021Z,7.21
2023-04-18T07:11:06.214Z,7.22
2023-04-18T07:13:35.889Z,7.30
2023-04-18T07:16:03.549Z,7.33
2023-04-18T07:18:37.353Z,7.32
2023-04-18T07:21:07.482Z,7.35
2023-04-18T07:23:34.489Z,7.39
2023-04-18T07:26:03.633Z,7.36
2023-04-18T07:28:32.085Z,7.38
2023-04-18T07:31:00.193Z,7.43
2023-04-18T07:33:26.943Z,7.53
2023-04-18T07:35:53.497Z,7.63
2023-04-18T07:38:20.725Z,7.70
2023-04-18T07:41:09.214Z,7.78
2023-04-18T07:43:43.855Z,7.92
2023-04-18T07:46:13.036Z,8.03
2023-04-18T07:48:42.325Z,8.26
2023-04-18T07:51:08.913Z,8.53
2023-04-18T07:53:35.766Z,8.73
2023-04-18T07:56:02.273Z,8.72
2023-04-18T07:58:29.182Z,8.71
2023-04-18T08:00:56.060Z,8.84
2023-04-18T08:03:22.813Z,8.89
2023-04-18T08:05:50.093Z,9.17
2023-04-18T08:08:16.733Z,9.97
2023-04-18T08:10:43.284Z,9.90
2023-04-18T08:13:09.818Z,9.89
2023-04-18T08:15:36.407Z,10.23
2023-04-18T08:18:03.028Z,10.24
2023-04-18T08:20:31.753Z,10.28
2023-04-18T08:23:07.612Z,10.68
2023-04-18T08:25:36.393Z,10.90
2023-04-18T08:28:04.096Z,10.72
2023-04-18T08:30:31.662Z,10.68
2023-04-18T08:33:01.063Z,11.13
2023-04-18T08:35:30.114Z,11.16
2023-04-18T08:38:01.611Z,10.87
2023-04-18T08:40:30.229Z,10.51
2023-04-18T08:42:58.550Z,10.44
2023-04-18T08:45:26.138Z,10.55
2023-04-18T08:47:54.016Z,10.49
2023-04-18T08:50:21.397Z,10.70
2023-04-18T08:52:50.639Z,10.77
2023-04-18T08:55:18.987Z,10.93
2023-04-18T08:57:45.802Z,11.19
2023-04-18T09:00:14.319Z,11.26
2023-04-18T09:02:42.410Z,11.10
2023-04-18T09:05:15.037Z,10.90
2023-04-18T09:07:42.500Z,11.06
2023-04-18T09:10:10.121Z,11.28
2023-04-18T09:12:50.736Z,11.59
2023-04-18T09:15:20.405Z,11.40
2023-04-18T09:17:50.945Z,11.55
2023-04-18T09:20:35.165Z,11.75
2023-04-18T09:23:10.339Z,12.59
2023-04-18T09:25:47.891Z,12.92
2023-04-18T09:28:33.105Z,12.89
2023-04-18T09:31:10.176Z,13.12
2023-04-18T09:33:38.220Z,12.87
2023-04-18T09:36:19.971Z,12.43
2023-04-18T09:38:47.555Z,12.67
2023-04-18T09:41:21.261Z,12.97
2023-04-18T09:43:48.609Z,13.24
2023-04-18T09:46:17.514Z,13.33
2023-04-18T09:48:44.233Z,13.17
2023-04-18T09:51:14.803Z,13.01
2023-04-18T09:53:44.545Z,12.68
2023-04-18T09:56:28.216Z,12.41
2023-04-18T09:59:07.312Z,12.20
2023-04-18T10:01:34.579Z,12.26
2023-04-18T10:04:03.345Z,12.56
2023-04-18T10:06:33.446Z,12.58
2023-04-18T10:09:04.211Z,12.59
2023-04-18T10:11:32.371Z,12.59
2023-04-18T10:14:06.875Z,12.38
2023-04-18T10:16:34.923Z,12.22
2023-04-18T10:19:29.374Z,12.23
2023-04-18T10:22:01.470Z,12.21
2023-04-18T10:24:48.338Z,12.42
2023-04-18T10:27:17.019Z,12.42
2023-04-18T10:29:49.382Z,12.74
2023-04-18T10:32:18.129Z,13.05
2023-04-18T10:34:47.194Z,12.74
2023-04-18T10:37:13.747Z,12.55
2023-04-18T10:40:07.137Z,12.48
2023-04-18T10:42:51.811Z,12.65
2023-04-18T10:45:22.092Z,12.74
2023-04-18T10:47:48.965Z,13.18
2023-04-18T10:50:19.456Z,13.16
2023-04-18T10:52:46.154Z,13.10
2023-04-18T10:55:19.163Z,13.49
2023-04-18T10:57:50.675Z,13.70
2023-04-18T11:00:22.793Z,13.65
2023-04-18T11:02:52.167Z,13.82
2023-04-18T11:05:21.186Z,13.62
2023-04-18T11:07:50.675Z,13.20
2023-04-18T11:10:26.233Z,13.07
2023-04-18T11:12:54.176Z,12.84
2023-04-18T11:15:22.942Z,12.93
2023-04-18T11:18:03.846Z,13.07
2023-04-18T11:20:38.553Z,13.01
2023-04-18T11:23:16.182Z,13.04
2023-04-18T11:25:44.847Z,13.00
2023-04-18T11:28:14.001Z,13.05
2023-04-18T11:30:41.328Z,13.11
2023-04-18T11:33:13.375Z,13.08
2023-04-18T11:35:44.582Z,12.98
2023-04-18T11:38:15.939Z,12.83
2023-04-18T11:40:50.846Z,12.77
2023-04-18T11:43:22.513Z,12.76
2023-04-18T11:45:57.025Z,12.96
2023-04-18T11:48:24.202Z,13.18
2023-04-18T11:50:50.763Z,13.18
2023-04-18T11:53:35.457Z,13.12
2023-04-18T11:56:03.526Z,13.27
2023-04-18T11:58:34.377Z,13.24
2023-04-18T12:01:22.348Z,13.18
2023-04-18T12:04:05.975Z,13.05
2023-04-18T12:06:49.222Z,13.09
2023-04-18T12:09:17.465Z,13.15
2023-04-18T12:11:44.368Z,13.24
2023-04-18T12:14:21.610Z,13.25
2023-04-18T12:16:51.838Z,13.11
2023-04-18T12:19:20.598Z,13.05
2023-04-18T12:22:05.057Z,13.05
2023-04-18T12:24:32.316Z,13.20
2023-04-18T12:27:00.671Z,13.35
2023-04-18T12:29:28.733Z,13.47
2023-04-18T12:31:55.555Z,13.49
2023-04-18T12:34:22.102Z,13.39
2023-04-18T12:36:48.686Z,13.45
2023-04-18T12:39:15.623Z,13.53
2023-04-18T12:41:43.238Z,13.54
2023-04-18T12:44:09.679Z,13.50
2023-04-18T12:46:36.415Z,13.50
2023-04-18T12:49:02.966Z,13.41
2023-04-18T12:51:29.496Z,13.25
2023-04-18T12:53:56.312Z,13.26
2023-04-18T12:56:22.859Z,13.26
2023-04-18T12:58:49.411Z,13.30
2023-04-18T13:01:16.511Z,13.26
2023-04-18T13:03:45.554Z,13.20
2023-04-18T13:06:15.551Z,13.22
2023-04-18T13:08:42.562Z,13.17
2023-04-18T13:11:09.266Z,13.18
2023-04-18T13:13:37.147Z,13.16
2023-04-18T13:16:04.342Z,13.17
2023-04-18T13:18:30.854Z,13.12
2023-04-18T13:20:58.428Z,13.08
2023-04-18T13:23:24.999Z,13.07
2023-04-18T13:25:51.639Z,13.09
2023-04-18T13:28:18.158Z,13.18
2023-04-18T13:30:45.210Z,13.29
2023-04-18T13:33:11.785Z,13.34
2023-04-18T13:35:38.370Z,13.30
2023-04-18T13:38:04.785Z,13.32
2023-04-18T13:40:33.400Z,13.32
2023-04-18T13:42:59.905Z,13.25
2023-04-18T13:45:26.416Z,13.38
2023-04-18T13:47:52.845Z,13.52
2023-04-18T13:50:20.278Z,13.72
2023-04-18T13:52:48.628Z,13.77
2023-04-18T13:55:16.116Z,13.78
2023-04-18T13:57:42.602Z,13.72
2023-04-18T14:00:09.841Z,13.84
2023-04-18T14:02:40.270Z,13.89
2023-04-18T14:05:07.384Z,14.24
2023-04-18T14:07:34.018Z,14.39
2023-04-18T14:10:00.645Z,14.37
2023-04-18T14:12:27.123Z,14.26
2023-04-18T14:14:53.735Z,14.17
2023-04-18T14:17:20.217Z,14.12
2023-04-18T14:19:46.704Z,14.11
2023-04-18T14:22:13.494Z,13.97
2023-04-18T14:24:39.996Z,14.03
2023-04-18T14:27:06.511Z,14.10
2023-04-18T14:29:33.018Z,14.10
2023-04-18T14:32:01.952Z,14.05
2023-04-18T14:34:31.229Z,14.01
2023-04-18T14:36:59.813Z,13.84
2023-04-18T14:39:26.243Z,13.93
2023-04-18T14:41:54.669Z,13.98
2023-04-18T14:44:21.109Z,14.02
2023-04-18T14:46:48.813Z,13.97
2023-04-18T14:49:15.526Z,13.86
2023-04-18T14:51:43.390Z,13.95
2023-04-18T14:54:10.162Z,14.17
2023-04-18T14:56:36.664Z,14.28
2023-04-18T14:59:03.769Z,14.34
2023-04-18T15:01:31.657Z,14.34
2023-04-18T15:04:00.623Z,14.18
2023-04-18T15:06:27.297Z,14.07
2023-04-18T15:08:56.666Z,14.09
2023-04-18T15:11:23.687Z,14.25
2023-04-18T15:13:51.700Z,14.22
2023-04-18T15:16:18.348Z,14.18
2023-04-18T15:18:45.118Z,14.23
2023-04-18T15:21:11.560Z,14.36
2023-04-18T15:23:38.289Z,14.22
2023-04-18T15:26:04.884Z,14.19
2023-04-18T15:28:31.364Z,14.06
2023-04-18T15:30:57.866Z,13.95
2023-04-18T15:33:25.933Z,13.95
2023-04-18T15:35:52.477Z,13.87
2023-04-18T15:38:19.093Z,13.85
2023-04-18T15:40:45.724Z,13.91
2023-04-18T15:43:13.725Z,13.96
2023-04-18T15:45:40.697Z,13.95
2023-04-18T15:48:07.178Z,13.91
2023-04-18T15:50:33.876Z,13.86
2023-04-18T15:53:00.600Z,13.79
2023-04-18T15:55:29.839Z,13.85
2023-04-18T15:57:56.399Z,13.82
2023-04-18T16:00:26.533Z,13.83
2023-04-18T16:02:53.637Z,13.84
2023-04-18T16:05:20.149Z,13.85
2023-04-18T16:07:46.573Z,13.87
2023-04-18T16:10:15.017Z,13.88
2023-04-18T16:12:41.559Z,13.90
2023-04-18T16:15:09.653Z,13.92
2023-04-18T16:17:37.357Z,13.93
2023-04-18T16:20:06.087Z,13.99
2023-04-18T16:22:32.801Z,13.93
2023-04-18T16:24:59.733Z,13.95
2023-04-18T16:27:26.303Z,13.96
2023-04-18T16:29:53.732Z,13.91
2023-04-18T16:32:20.399Z,13.78
2023-04-18T16:34:47.357Z,13.69
2023-04-18T16:37:13.771Z,13.61
2023-04-18T16:39:42.499Z,13.57
2023-04-18T16:42:09.072Z,13.57
2023-04-18T16:44:35.653Z,13.56
2023-04-18T16:47:02.353Z,13.59
2023-04-18T16:49:28.996Z,13.58
2023-04-18T16:51:55.460Z,13.53
2023-04-18T16:54:21.909Z,13.55
2023-04-18T16:56:48.618Z,13.58
2023-04-18T16:59:16.223Z,13.58
2023-04-18T17:01:42.758Z,13.60
2023-04-18T17:04:09.358Z,13.60
2023-04-18T17:06:35.898Z,13.60
2023-04-18T17:09:03.558Z,13.61
2023-04-18T17:11:32.050Z,13.56
2023-04-18T17:13:58.444Z,13.51
2023-04-18T17:16:25.048Z,13.49
2023-04-18T17:18:51.531Z,13.40
2023-04-18T17:21:18.051Z,13.33
2023-04-18T17:23:44.579Z,13.27
2023-04-18T17:26:11.219Z,13.22
2023-04-18T17:28:37.762Z,13.21
2023-04-18T17:31:05.994Z,13.18
2023-04-18T17:33:32.502Z,13.15
2023-04-18T17:35:58.980Z,13.15
2023-04-18T17:38:25.587Z,13.11
2023-04-18T17:41:00.404Z,13.12
2023-04-18T17:43:27.271Z,13.15
2023-04-18T17:45:54.042Z,13.15
2023-04-18T17:48:22.784Z,13.11
2023-04-18T17:50:49.195Z,13.04
2023-04-18T17:53:18.490Z,13.00
2023-04-18T17:55:46.815Z,13.02
2023-04-18T17:58:16.579Z,12.98
2023-04-18T18:00:44.335Z,12.95
2023-04-18T18:03:16.344Z,12.91
2023-04-18T18:05:49.613Z,12.88
2023-04-18T18:08:16.396Z,12.84
2023-04-18T18:10:46.535Z,12.81
2023-04-18T18:13:13.684Z,12.76
2023-04-18T18:15:40.210Z,12.72
2023-04-18T18:18:06.788Z,12.66
2023-04-18T18:20:33.282Z,12.61
2023-04-18T18:22:59.817Z,12.57
2023-04-18T18:25:26.971Z,12.54
2023-04-18T18:27:54.445Z,12.52
2023-04-18T18:30:21.687Z,12.49
2023-04-18T18:32:48.393Z,12.43
2023-04-18T18:35:16.077Z,12.40
2023-04-18T18:37:43.626Z,12.34
2023-04-18T18:40:11.720Z,12.29
2023-04-18T18:42:38.221Z,12.23
2023-04-18T18:45:05.841Z,12.20
2023-04-18T18:47:32.349Z,12.14
2023-04-18T18:49:58.976Z,12.08
2023-04-18T18:52:28.038Z,12.01
2023-04-18T18:54:55.040Z,12.01
2023-04-18T18:57:21.595Z,11.95
2023-04-18T18:59:50.982Z,11.90
2023-04-18T19:02:17.710Z,11.86
2023-04-18T19:04:44.708Z,11.82
2023-04-18T19:07:11.591Z,11.80
2023-04-18T19:09:38.114Z,11.74
2023-04-18T19:12:05.234Z,11.68
2023-04-18T19:14:33.862Z,11.59
2023-04-18T19:17:00.748Z,11.57
2023-04-18T19:19:27.263Z,11.53
2023-04-18T19:21:53.776Z,11.45
2023-04-18T19:24:20.629Z,11.43
2023-04-18T19:26:47.117Z,11.43
2023-04-18T19:29:16.408Z,11.40
2023-04-18T19:31:43.981Z,11.35
2023-04-18T19:34:10.904Z,11.32
2023-04-18T19:36:37.391Z,11.27
2023-04-18T19:39:04.142Z,11.26
2023-04-18T19:41:30.653Z,11.25
2023-04-18T19:43:59.395Z,11.19
2023-04-18T19:46:27.093Z,11.16
2023-04-18T19:48:54.720Z,11.15
2023-04-18T19:51:21.607Z,11.09
2023-04-18T19:53:48.148Z,11.06
2023-04-18T19:56:15.724Z,11.00
2023-04-18T19:58:46.444Z,10.99
2023-04-18T20:01:16.715Z,10.96
2023-04-18T20:03:43.589Z,10.92
2023-04-18T20:06:11.492Z,10.89
2023-04-18T20:08:41.510Z,10.81
2023-04-18T20:11:10.412Z,10.77
2023-04-18T20:13:38.703Z,10.75
2023-04-18T20:16:07.447Z,10.73
2023-04-18T20:18:35.847Z,10.69
2023-04-18T20:21:03.461Z,10.65
2023-04-18T20:23:30.911Z,10.62
2023-04-18T20:25:57.703Z,10.59
2023-04-18T20:28:24.451Z,10.51
2023-04-18T20:30:51.050Z,10.48
2023-04-18T20:33:17.537Z,10.45
2023-04-18T20:35:48.202Z,10.41
2023-04-18T20:38:15.160Z,10.36
2023-04-18T20:40:47.229Z,10.34
2023-04-18T20:43:17.397Z,10.29
2023-04-18T20:45:45.986Z,10.27
2023-04-18T20:48:14.006Z,10.21
2023-04-18T20:50:41.043Z,10.19
2023-04-18T20:53:07.476Z,10.17
2023-04-18T20:55:33.939Z,10.13
2023-04-18T20:58:00.573Z,10.09
2023-04-18T21:00:28.160Z,10.07
2023-04-18T21:02:56.217Z,10.03
2023-04-18T21:05:23.562Z,9.99
2023-04-18T21:07:50.366Z,9.94
2023-04-18T21:10:21.208Z,9.93
2023-04-18T21:12:47.889Z,9.88
2023-04-18T21:15:17.695Z,9.87
2023-04-18T21:17:45.837Z,9.85
2023-04-18T21:20:13.719Z,9.82
2023-04-18T21:22:40.476Z,9.77
2023-04-18T21:25:07.558Z,9.78
2023-04-18T21:27:34.022Z,9.76
2023-04-18T21:30:02.249Z,9.74
2023-04-18T21:32:30.465Z,9.71
2023-04-18T21:34:57.802Z,9.69
2023-04-18T21:37:25.189Z,9.65
2023-04-18T21:39:52.133Z,9.64
2023-04-18T21:42:18.689Z,9.61
2023-04-18T21:44:45.247Z,9.59
2023-04-18T21:47:11.702Z,9.55
2023-04-18T21:49:38.247Z,9.52
2023-04-18T21:52:04.922Z,9.50
2023-04-18T21:54:31.367Z,9.47
2023-04-18T21:56:58.453Z,9.44
2023-04-18T21:59:24.918Z,9.41
2023-04-18T22:01:51.363Z,9.39
2023-04-18T22:04:21.007Z,9.38
2023-04-18T22:06:47.842Z,9.37
2023-04-18T22:09:14.462Z,9.36
2023-04-18T22:11:41.246Z,9.36
2023-04-18T22:14:09.842Z,9.32
2023-04-18T22:16:38.054Z,9.31
2023-04-18T22:19:05.658Z,9.29
2023-04-18T22:21:32.204Z,9.26
2023-04-18T22:23:58.634Z,9.24
2023-04-18T22:26:25.293Z,9.21
2023-04-18T22:28:51.761Z,9.19
2023-04-18T22:31:18.298Z,9.16
2023-04-18T22:33:47.409Z,9.13
2023-04-18T22:36:13.945Z,9.10
2023-04-18T22:38:40.345Z,9.08
2023-04-18T22:41:07.828Z,9.06
2023-04-18T22:43:34.395Z,9.00
2023-04-18T22:46:00.973Z,8.99
2023-04-18T22:48:27.488Z,8.94
2023-04-18T22:50:54.281Z,8.92
2023-04-18T22:53:21.992Z,8.92
2023-04-18T22:55:48.427Z,8.90
2023-04-18T22:58:14.919Z,8.86
2023-04-18T23:00:41.526Z,8.85
2023-04-18T23:03:08.191Z,8.81
2023-04-18T23:05:35.328Z,8.77
2023-04-18T23:08:01.954Z,8.74
2023-04-18T23:10:29.950Z,8.73
2023-04-18T23:12:56.557Z,8.70
2023-04-18T23:15:23.170Z,8.69
2023-04-18T23:17:52.891Z,8.68
2023-04-18T23:20:20.746Z,8.68
2023-04-18T23:22:51.477Z,8.66
2023-04-18T23:25:19.304Z,8.66
2023-04-18T23:27:45.791Z,8.67
2023-04-18T23:30:14.108Z,8.69
2023-04-18T23:32:40.645Z,8.69
2023-04-18T23:35:07.569Z,8.68
2023-04-18T23:37:35.488Z,8.68
2023-04-18T23:40:05.328Z,8.69
2023-04-18T23:42:36.156Z,8.70
2023-04-18T23:45:04.044Z,8.68
2023-04-18T23:47:30.634Z,8.69
2023-04-18T23:49:57.494Z,8.68
2023-04-18T23:52:24.191Z,8.67
2023-04-18T23:54:50.717Z,8.66
2023-04-18T23:57:23.954Z,8.64
2023-04-18T23:59:50.488Z,8.62
